createdAt,value
2022-08-17T00:01:21.427Z,100.00
2022-08-17T00:03:52.570Z,100.00
2022-08-17T00:06:26.535Z,100.00
2022-08-17T00:08:57.810Z,100.00
2022-08-17T00:11:28.817Z,100.00
2022-08-17T00:14:00.274Z,100.00
2022-08-17T00:16:55.756Z,100.00
2022-08-17T00:19:08.384Z,100.00
2022-08-17T00:22:28.615Z,100.00
2022-08-17T00:24:07.384Z,100.00
2022-08-17T00:26:44.808Z,100.00
2022-08-17T00:29:07.693Z,100.00
2022-08-17T00:31:36.688Z,100.00
2022-08-17T00:34:09.317Z,100.00
2022-08-17T00:36:38.431Z,100.00
2022-08-17T00:39:07.169Z,100.00
2022-08-17T00:41:35.946Z,100.00
2022-08-17T00:44:07.001Z,100.00
2022-08-17T00:46:38.213Z,100.00
2022-08-17T00:49:07.716Z,100.00
2022-08-17T00:51:37.960Z,100.00
2022-08-17T00:54:08.452Z,100.00
2022-08-17T00:56:44.822Z,100.00
2022-08-17T00:59:14.944Z,100.00
2022-08-17T01:01:43.751Z,100.00
2022-08-17T01:04:13.965Z,100.00
2022-08-17T01:06:43.670Z,100.00
2022-08-17T01:09:12.411Z,100.00
2022-08-17T01:11:41.746Z,100.00
2022-08-17T01:14:10.937Z,100.00
2022-08-17T01:16:40.153Z,100.00
2022-08-17T01:19:13.101Z,100.00
2022-08-17T01:21:46.279Z,100.00
2022-08-17T01:24:15.289Z,100.00
2022-08-17T01:26:44.909Z,100.00
2022-08-17T01:29:13.644Z,100.00
2022-08-17T01:31:45.049Z,100.00
2022-08-17T01:34:14.562Z,100.00
2022-08-17T01:36:46.070Z,100.00
2022-08-17T01:39:16.317Z,100.00
2022-08-17T01:41:46.307Z,100.00
2022-08-17T01:44:17.716Z,100.00
2022-08-17T01:46:46.435Z,100.00
2022-08-17T01:49:16.202Z,100.00
2022-08-17T01:51:44.999Z,100.00
2022-08-17T01:54:15.243Z,100.00
2022-08-17T01:56:47.532Z,100.00
2022-08-17T01:59:16.784Z,100.00
2022-08-17T02:01:46.232Z,100.00
2022-08-17T02:04:16.775Z,100.00
2022-08-17T02:06:53.451Z,100.00
2022-08-17T02:09:16.943Z,100.00
2022-08-17T02:11:46.410Z,100.00
2022-08-17T02:14:16.533Z,100.00
2022-08-17T02:16:45.380Z,100.00
2022-08-17T02:19:16.034Z,100.00
2022-08-17T02:21:46.413Z,100.00
2022-08-17T02:24:59.731Z,100.00
2022-08-17T02:26:56.737Z,100.00
2022-08-17T02:29:26.633Z,100.00
2022-08-17T02:31:56.235Z,100.00
2022-08-17T02:34:25.745Z,100.00
2022-08-17T02:36:55.542Z,100.00
2022-08-17T02:39:24.357Z,100.00
2022-08-17T02:41:55.780Z,100.00
2022-08-17T02:44:39.481Z,100.00
2022-08-17T02:46:55.415Z,100.00
2022-08-17T02:49:25.216Z,100.00
2022-08-17T02:51:53.979Z,100.00
2022-08-17T02:54:41.291Z,100.00
2022-08-17T02:56:53.186Z,100.00
2022-08-17T02:59:23.562Z,100.00
2022-08-17T03:01:53.811Z,100.00
2022-08-17T03:04:23.170Z,100.00
2022-08-17T03:06:51.910Z,100.00
2022-08-17T03:09:21.758Z,100.00
2022-08-17T03:11:51.932Z,100.00
2022-08-17T03:14:26.202Z,100.00
2022-08-17T03:16:52.689Z,100.00
2022-08-17T03:19:21.429Z,100.00
2022-08-17T03:21:55.034Z,100.00
2022-08-17T03:24:20.610Z,100.00
2022-08-17T03:26:50.986Z,100.00
2022-08-17T03:29:19.787Z,100.00
2022-08-17T03:31:49.403Z,100.00
2022-08-17T03:34:19.125Z,100.00
2022-08-17T03:36:47.870Z,100.00
2022-08-17T03:39:16.678Z,100.00
2022-08-17T03:41:45.444Z,100.00
2022-08-17T03:44:16.124Z,100.00
2022-08-17T03:47:03.989Z,100.00
2022-08-17T03:49:50.576Z,100.00
2022-08-17T03:52:37.043Z,100.00
2022-08-17T03:55:29.445Z,100.00
2022-08-17T03:57:54.318Z,100.00
2022-08-17T04:00:23.045Z,100.00
2022-08-17T04:02:52.042Z,100.00
2022-08-17T04:05:21.406Z,100.00
2022-08-17T04:07:51.832Z,100.00
2022-08-17T04:10:24.695Z,100.00
2022-08-17T04:12:53.001Z,100.00
2022-08-17T04:15:22.473Z,100.00
2022-08-17T04:17:51.344Z,100.00
2022-08-17T04:20:21.941Z,100.00
2022-08-17T04:22:58.375Z,100.00
2022-08-17T04:25:27.445Z,100.00
2022-08-17T04:27:56.383Z,100.00
2022-08-17T04:30:25.651Z,100.00
2022-08-17T04:33:06.170Z,100.00
2022-08-17T04:35:33.437Z,100.00
2022-08-17T04:38:02.172Z,100.00
2022-08-17T04:40:49.011Z,100.00
2022-08-17T04:43:19.244Z,100.00
2022-08-17T04:45:55.566Z,100.00
2022-08-17T04:48:20.927Z,100.00
2022-08-17T04:50:50.501Z,100.00
2022-08-17T04:53:20.033Z,100.00
2022-08-17T04:55:49.401Z,100.00
2022-08-17T04:58:18.157Z,100.00
2022-08-17T05:00:48.148Z,100.00
2022-08-17T05:03:17.084Z,100.00
2022-08-17T05:05:47.443Z,100.00
2022-08-17T05:08:18.084Z,100.00
2022-08-17T05:10:47.373Z,100.00
2022-08-17T05:13:17.613Z,100.00
2022-08-17T05:15:47.719Z,100.00
2022-08-17T05:18:17.641Z,100.00
2022-08-17T05:20:48.750Z,100.00
2022-08-17T05:23:18.475Z,100.00
2022-08-17T05:25:48.674Z,100.00
2022-08-17T05:28:23.502Z,100.00
2022-08-17T05:30:52.000Z,100.00
2022-08-17T05:33:22.953Z,100.00
2022-08-17T05:35:53.263Z,100.00
2022-08-17T05:38:23.782Z,100.00
2022-08-17T05:40:52.916Z,100.00
2022-08-17T05:43:26.192Z,100.00
2022-08-17T05:46:02.357Z,100.00
2022-08-17T05:48:39.592Z,100.00
2022-08-17T05:51:10.683Z,100.00
2022-08-17T05:53:43.874Z,100.00
2022-08-17T05:56:29.890Z,100.00
2022-08-17T05:58:54.275Z,100.00
2022-08-17T06:01:41.047Z,100.00
2022-08-17T06:04:17.200Z,100.00
2022-08-17T06:06:47.462Z,100.00
2022-08-17T06:09:28.903Z,100.00
2022-08-17T06:11:58.933Z,100.00
2022-08-17T06:14:33.236Z,100.00
2022-08-17T06:17:03.494Z,100.00
2022-08-17T06:19:53.170Z,100.00
2022-08-17T06:22:23.494Z,100.00
2022-08-17T06:24:57.097Z,100.00
2022-08-17T06:27:45.672Z,100.00
2022-08-17T06:30:27.729Z,100.00
2022-08-17T06:33:00.495Z,100.00
2022-08-17T06:35:36.481Z,100.00
2022-08-17T06:38:07.289Z,100.00
2022-08-17T06:40:55.229Z,100.00
2022-08-17T06:43:46.153Z,100.00
2022-08-17T06:46:19.826Z,100.00
2022-08-17T06:48:50.085Z,100.00
2022-08-17T06:51:29.312Z,100.00
2022-08-17T06:54:02.578Z,100.00
2022-08-17T06:56:54.472Z,100.00
2022-08-17T06:59:05.318Z,100.00
2022-08-17T07:01:35.703Z,100.00
2022-08-17T07:04:11.832Z,100.00
2022-08-17T07:06:44.848Z,100.00
2022-08-17T07:09:33.282Z,100.00
2022-08-17T07:12:06.705Z,100.00
2022-08-17T07:14:37.891Z,100.00
2022-08-17T07:17:11.503Z,100.00
2022-08-17T07:19:41.506Z,100.00
2022-08-17T07:22:20.918Z,100.00
2022-08-17T07:24:58.332Z,100.00
2022-08-17T07:27:28.650Z,100.00
2022-08-17T07:30:10.319Z,100.00
2022-08-17T07:32:37.900Z,100.00
2022-08-17T07:35:15.361Z,100.00
2022-08-17T07:37:45.827Z,100.00
2022-08-17T07:40:19.121Z,100.00
2022-08-17T07:43:07.884Z,100.00
2022-08-17T07:45:58.051Z,100.00
2022-08-17T07:48:27.582Z,100.00
2022-08-17T07:50:58.486Z,100.00
2022-08-17T07:53:27.909Z,100.00
2022-08-17T07:55:56.733Z,100.00
2022-08-17T07:58:26.565Z,100.00
2022-08-17T08:01:04.174Z,100.00
2022-08-17T08:03:34.172Z,100.00
2022-08-17T08:06:04.084Z,100.00
2022-08-17T08:08:34.425Z,100.00
2022-08-17T08:11:04.660Z,100.00
2022-08-17T08:13:34.607Z,100.00
2022-08-17T08:16:14.460Z,100.00
2022-08-17T08:18:54.369Z,100.00
2022-08-17T08:21:21.287Z,100.00
2022-08-17T08:24:03.555Z,100.00
2022-08-17T08:26:36.926Z,100.00
2022-08-17T08:29:17.824Z,100.00
2022-08-17T08:31:54.524Z,98.51
2022-08-17T08:35:00.591Z,99.89
2022-08-17T08:37:14.596Z,94.59
2022-08-17T08:39:39.714Z,90.51
2022-08-17T08:42:11.518Z,100.00
2022-08-17T08:45:00.064Z,84.50
2022-08-17T08:47:18.192Z,86.28
2022-08-17T08:50:06.683Z,96.11
2022-08-17T08:52:27.060Z,85.07
2022-08-17T08:54:57.301Z,84.82
2022-08-17T08:57:33.963Z,78.96
2022-08-17T09:00:03.154Z,78.60
2022-08-17T09:02:36.101Z,85.36
2022-08-17T09:05:14.183Z,73.68
2022-08-17T09:07:42.175Z,73.95
2022-08-17T09:10:15.124Z,74.87
2022-08-17T09:12:51.084Z,78.94
2022-08-17T09:15:31.766Z,79.30
2022-08-17T09:18:59.318Z,78.69
2022-08-17T09:20:33.894Z,70.82
2022-08-17T09:23:09.107Z,69.15
2022-08-17T09:25:41.490Z,72.04
2022-08-17T09:28:12.608Z,70.71
2022-08-17T09:30:48.828Z,71.32
2022-08-17T09:33:19.231Z,69.16
2022-08-17T09:35:49.486Z,69.48
2022-08-17T09:38:19.727Z,65.83
2022-08-17T09:40:55.972Z,66.99
2022-08-17T09:43:26.227Z,70.54
2022-08-17T09:45:57.432Z,72.88
2022-08-17T09:48:33.542Z,64.04
2022-08-17T09:51:06.604Z,63.95
2022-08-17T09:53:35.737Z,70.67
2022-08-17T09:56:09.057Z,66.59
2022-08-17T09:58:48.576Z,66.32
2022-08-17T10:01:31.728Z,65.96
2022-08-17T10:04:04.786Z,66.46
2022-08-17T10:06:36.070Z,57.85
2022-08-17T10:09:10.086Z,58.79
2022-08-17T10:12:01.235Z,71.19
2022-08-17T10:14:44.198Z,58.19
2022-08-17T10:17:27.261Z,61.36
2022-08-17T10:20:04.068Z,57.05
2022-08-17T10:22:54.947Z,61.06
2022-08-17T10:25:56.737Z,58.61
2022-08-17T10:28:19.769Z,63.64
2022-08-17T10:30:45.048Z,55.09
2022-08-17T10:33:15.472Z,52.18
2022-08-17T10:35:52.865Z,57.54
2022-08-17T10:38:33.530Z,57.38
2022-08-17T10:41:07.149Z,51.71
2022-08-17T10:44:35.407Z,52.73
2022-08-17T10:46:30.602Z,53.29
2022-08-17T10:48:50.032Z,52.64
2022-08-17T10:51:38.618Z,55.40
2022-08-17T10:54:08.054Z,58.25
2022-08-17T10:56:41.281Z,59.67
2022-08-17T10:59:10.034Z,52.72
2022-08-17T11:01:42.135Z,62.49
2022-08-17T11:04:12.396Z,49.57
2022-08-17T11:07:03.291Z,51.69
2022-08-17T11:09:33.875Z,54.99
2022-08-17T11:12:05.783Z,54.48
2022-08-17T11:14:48.002Z,51.92
2022-08-17T11:17:24.282Z,54.21
2022-08-17T11:20:00.227Z,58.29
2022-08-17T11:22:34.130Z,52.95
2022-08-17T11:25:16.369Z,53.30
2022-08-17T11:27:48.533Z,52.56
2022-08-17T11:30:18.779Z,49.12
2022-08-17T11:32:51.989Z,53.87
2022-08-17T11:35:21.807Z,54.12
2022-08-17T11:38:14.069Z,56.39
2022-08-17T11:40:57.628Z,51.08
2022-08-17T11:43:30.802Z,53.46
2022-08-17T11:46:10.062Z,59.87
2022-08-17T11:49:10.394Z,60.35
2022-08-17T11:51:56.482Z,59.46
2022-08-17T11:54:36.297Z,56.32
2022-08-17T11:57:23.158Z,55.63
2022-08-17T11:59:55.814Z,67.02
2022-08-17T12:02:35.136Z,57.51
2022-08-17T12:05:14.521Z,55.12
2022-08-17T12:07:52.030Z,56.36
2022-08-17T12:10:22.542Z,56.70
2022-08-17T12:12:52.790Z,54.04
2022-08-17T12:15:24.606Z,57.80
2022-08-17T12:17:55.208Z,53.59
2022-08-17T12:20:34.692Z,53.90
2022-08-17T12:23:05.395Z,52.51
2022-08-17T12:25:35.977Z,57.40
2022-08-17T12:28:07.892Z,54.21
2022-08-17T12:30:36.974Z,57.23
2022-08-17T12:33:07.203Z,55.47
2022-08-17T12:35:39.034Z,53.81
2022-08-17T12:38:26.894Z,55.96
2022-08-17T12:40:40.293Z,51.85
2022-08-17T12:43:11.392Z,55.42
2022-08-17T12:45:40.604Z,52.34
2022-08-17T12:48:11.088Z,56.72
2022-08-17T12:50:41.862Z,54.54
2022-08-17T12:53:15.821Z,53.25
2022-08-17T12:55:45.041Z,50.93
2022-08-17T12:58:15.313Z,50.44
2022-08-17T13:00:47.545Z,54.50
2022-08-17T13:03:19.247Z,51.85
2022-08-17T13:05:55.481Z,53.91
2022-08-17T13:08:26.999Z,47.85
2022-08-17T13:10:58.303Z,51.63
2022-08-17T13:13:28.808Z,52.96
2022-08-17T13:16:02.009Z,53.28
2022-08-17T13:18:35.316Z,55.27
2022-08-17T13:21:04.138Z,51.55
2022-08-17T13:23:33.531Z,46.66
2022-08-17T13:26:06.519Z,52.70
2022-08-17T13:28:37.402Z,51.26
2022-08-17T13:31:16.937Z,47.41
2022-08-17T13:33:46.341Z,47.68
2022-08-17T13:36:19.485Z,49.14
2022-08-17T13:38:50.729Z,48.35
2022-08-17T13:41:33.668Z,49.86
2022-08-17T13:44:04.364Z,52.00
2022-08-17T13:46:33.847Z,53.12
2022-08-17T13:49:04.548Z,49.56
2022-08-17T13:51:46.563Z,50.00
2022-08-17T13:54:19.896Z,50.71
2022-08-17T13:56:57.365Z,46.26
2022-08-17T13:59:53.856Z,52.53
2022-08-17T14:02:02.680Z,50.58
2022-08-17T14:04:32.379Z,49.57
2022-08-17T14:07:05.655Z,48.80
2022-08-17T14:09:37.403Z,46.19
2022-08-17T14:12:08.600Z,48.87
2022-08-17T14:14:37.999Z,51.03
2022-08-17T14:17:07.963Z,50.17
2022-08-17T14:19:37.086Z,49.13
2022-08-17T14:22:12.175Z,50.97
2022-08-17T14:24:44.816Z,49.94
2022-08-17T14:27:13.551Z,49.94
2022-08-17T14:29:42.527Z,51.51
2022-08-17T14:32:18.598Z,53.60
2022-08-17T14:34:49.631Z,48.25
2022-08-17T14:37:19.399Z,46.12
2022-08-17T14:39:49.633Z,49.83
2022-08-17T14:42:18.467Z,49.28
2022-08-17T14:44:47.223Z,49.21
2022-08-17T14:47:16.196Z,50.96
2022-08-17T14:49:47.681Z,53.46
2022-08-17T14:52:19.496Z,52.17
2022-08-17T14:54:51.354Z,48.32
2022-08-17T14:57:33.294Z,51.91
2022-08-17T14:59:55.053Z,53.34
2022-08-17T15:02:30.234Z,53.54
2022-08-17T15:05:01.966Z,52.38
2022-08-17T15:07:31.492Z,50.48
2022-08-17T15:10:02.118Z,49.73
2022-08-17T15:12:33.813Z,48.03
2022-08-17T15:15:04.993Z,50.81
2022-08-17T15:17:45.149Z,53.17
2022-08-17T15:20:11.430Z,52.62
2022-08-17T15:22:40.128Z,53.55
2022-08-17T15:25:10.601Z,49.79
2022-08-17T15:27:40.303Z,52.72
2022-08-17T15:30:10.063Z,53.63
2022-08-17T15:32:40.903Z,51.01
2022-08-17T15:35:13.879Z,54.79
2022-08-17T15:37:43.633Z,53.68
2022-08-17T15:40:13.005Z,52.60
2022-08-17T15:42:41.771Z,52.46
2022-08-17T15:45:12.281Z,52.34
2022-08-17T15:47:42.687Z,51.97
2022-08-17T15:50:11.817Z,52.71
2022-08-17T15:52:45.016Z,53.42
2022-08-17T15:55:15.839Z,50.52
2022-08-17T15:57:45.348Z,48.17
2022-08-17T16:00:14.150Z,51.90
2022-08-17T16:03:46.978Z,51.15
2022-08-17T16:05:15.587Z,54.39
2022-08-17T16:07:45.930Z,62.78
2022-08-17T16:10:18.793Z,63.05
2022-08-17T16:12:46.380Z,64.63
2022-08-17T16:15:16.257Z,66.96
2022-08-17T16:17:44.965Z,65.38
2022-08-17T16:20:20.148Z,61.57
2022-08-17T16:22:46.628Z,62.69
2022-08-17T16:25:17.688Z,62.98
2022-08-17T16:27:47.805Z,63.88
2022-08-17T16:30:17.848Z,60.83
2022-08-17T16:32:52.914Z,59.88
2022-08-17T16:35:24.749Z,61.16
2022-08-17T16:37:57.206Z,63.84
2022-08-17T16:40:27.684Z,69.91
2022-08-17T16:42:57.759Z,69.62
2022-08-17T16:45:28.552Z,71.61
2022-08-17T16:47:59.209Z,77.65
2022-08-17T16:50:27.960Z,80.31
2022-08-17T16:52:58.232Z,72.43
2022-08-17T16:55:27.083Z,84.55
2022-08-17T16:57:56.316Z,85.33
2022-08-17T17:00:25.041Z,85.71
2022-08-17T17:02:55.777Z,90.59
2022-08-17T17:05:28.924Z,89.31
2022-08-17T17:08:12.778Z,91.77
2022-08-17T17:10:43.043Z,91.34
2022-08-17T17:13:13.291Z,91.90
2022-08-17T17:15:43.559Z,95.84
2022-08-17T17:18:14.731Z,97.84
2022-08-17T17:20:50.815Z,98.98
2022-08-17T17:23:21.186Z,99.69
2022-08-17T17:25:51.532Z,97.64
2022-08-17T17:28:23.439Z,100.00
2022-08-17T17:31:02.887Z,100.00
2022-08-17T17:33:34.106Z,99.95
2022-08-17T17:36:08.314Z,100.00
2022-08-17T17:38:41.769Z,100.00
2022-08-17T17:41:12.030Z,100.00
2022-08-17T17:43:41.601Z,100.00
2022-08-17T17:46:28.436Z,100.00
2022-08-17T17:48:52.043Z,100.00
2022-08-17T17:52:06.566Z,100.00
2022-08-17T17:53:54.398Z,100.00
2022-08-17T17:56:43.994Z,100.00
2022-08-17T17:58:56.664Z,100.00
2022-08-17T18:01:42.137Z,100.00
2022-08-17T18:04:20.707Z,100.00
2022-08-17T18:06:47.170Z,100.00
2022-08-17T18:09:23.376Z,100.00
2022-08-17T18:11:59.427Z,100.00
2022-08-17T18:14:29.785Z,100.00
2022-08-17T18:16:59.993Z,100.00
2022-08-17T18:19:30.392Z,100.00
2022-08-17T18:22:14.556Z,100.00
2022-08-17T18:24:41.354Z,100.00
2022-08-17T18:27:23.647Z,100.00
2022-08-17T18:29:54.018Z,100.00
2022-08-17T18:32:27.165Z,100.00
2022-08-17T18:35:00.342Z,100.00
2022-08-17T18:37:33.815Z,100.00
2022-08-17T18:40:04.141Z,100.00
2022-08-17T18:42:33.078Z,100.00
2022-08-17T18:45:01.985Z,100.00
2022-08-17T18:47:30.768Z,100.00
2022-08-17T18:50:02.483Z,100.00
2022-08-17T18:52:32.859Z,100.00
2022-08-17T18:55:08.594Z,100.00
2022-08-17T18:57:40.021Z,100.00
2022-08-17T19:00:14.296Z,100.00
2022-08-17T19:02:51.014Z,100.00
2022-08-17T19:05:21.364Z,100.00
2022-08-17T19:07:50.359Z,100.00
2022-08-17T19:10:23.687Z,100.00
2022-08-17T19:12:54.108Z,100.00
2022-08-17T19:15:26.030Z,100.00
2022-08-17T19:18:13.343Z,100.00
2022-08-17T19:20:40.574Z,100.00
2022-08-17T19:23:19.010Z,100.00
2022-08-17T19:25:49.409Z,100.00
2022-08-17T19:28:22.630Z,100.00
2022-08-17T19:30:53.231Z,100.00
2022-08-17T19:33:25.056Z,100.00
2022-08-17T19:36:01.538Z,100.00
2022-08-17T19:38:33.009Z,100.00
2022-08-17T19:41:03.384Z,100.00
2022-08-17T19:43:47.652Z,100.00
2022-08-17T19:46:18.014Z,100.00
2022-08-17T19:49:04.672Z,100.00
2022-08-17T19:51:40.896Z,100.00
2022-08-17T19:54:18.284Z,100.00
2022-08-17T19:56:55.572Z,100.00
2022-08-17T19:59:45.353Z,100.00
2022-08-17T20:02:15.609Z,100.00
2022-08-17T20:04:45.800Z,100.00
2022-08-17T20:07:25.274Z,100.00
2022-08-17T20:10:01.805Z,100.00
2022-08-17T20:12:32.064Z,100.00
2022-08-17T20:15:08.191Z,100.00
2022-08-17T20:17:41.403Z,100.00
2022-08-17T20:20:19.342Z,100.00
2022-08-17T20:22:52.216Z,100.00
2022-08-17T20:25:18.358Z,100.00
2022-08-17T20:27:50.314Z,100.00
2022-08-17T20:30:26.557Z,100.00
2022-08-17T20:32:57.173Z,100.00
2022-08-17T20:35:36.400Z,100.00
2022-08-17T20:38:06.879Z,100.00
2022-08-17T20:40:37.132Z,100.00
2022-08-17T20:43:25.098Z,100.00
2022-08-17T20:45:55.348Z,100.00
2022-08-17T20:48:42.607Z,100.00
2022-08-17T20:51:00.658Z,100.00
2022-08-17T20:53:46.197Z,100.00
2022-08-17T20:56:32.996Z,100.00
2022-08-17T20:59:01.817Z,100.00
2022-08-17T21:01:39.611Z,100.00
2022-08-17T21:04:12.871Z,100.00
2022-08-17T21:06:43.097Z,100.00
2022-08-17T21:09:13.352Z,100.00
2022-08-17T21:12:00.000Z,100.00
2022-08-17T21:14:20.966Z,100.00
2022-08-17T21:16:55.374Z,100.00
2022-08-17T21:19:31.125Z,100.00
2022-08-17T21:22:02.484Z,100.00
2022-08-17T21:24:36.624Z,100.00
2022-08-17T21:27:23.533Z,100.00
2022-08-17T21:29:57.418Z,100.00
2022-08-17T21:32:30.734Z,100.00
2022-08-17T21:35:13.553Z,100.00
2022-08-17T21:37:44.388Z,100.00
2022-08-17T21:40:19.903Z,100.00
2022-08-17T21:42:58.054Z,100.00
2022-08-17T21:45:28.487Z,100.00
2022-08-17T21:48:07.869Z,100.00
2022-08-17T21:50:36.869Z,100.00
2022-08-17T21:53:07.129Z,100.00
2022-08-17T21:55:36.837Z,100.00
2022-08-17T21:58:13.649Z,100.00
2022-08-17T22:00:40.649Z,100.00
2022-08-17T22:03:11.332Z,100.00
2022-08-17T22:05:41.135Z,100.00
2022-08-17T22:08:16.997Z,100.00
2022-08-17T22:10:48.430Z,100.00
2022-08-17T22:13:24.809Z,100.00
2022-08-17T22:16:15.663Z,100.00
2022-08-17T22:18:40.315Z,100.00
2022-08-17T22:21:09.597Z,100.00
2022-08-17T22:23:57.929Z,100.00
2022-08-17T22:26:28.215Z,100.00
2022-08-17T22:28:58.234Z,100.00
2022-08-17T22:31:28.588Z,100.00
2022-08-17T22:34:01.838Z,100.00
2022-08-17T22:36:35.061Z,100.00
2022-08-17T22:39:11.432Z,100.00
2022-08-17T22:41:50.589Z,100.00
2022-08-17T22:44:24.136Z,100.00
2022-08-17T22:46:57.473Z,100.00
2022-08-17T22:49:29.339Z,100.00
2022-08-17T22:52:05.539Z,100.00
2022-08-17T22:54:52.044Z,100.00
2022-08-17T22:57:40.023Z,100.00
2022-08-17T23:00:10.381Z,100.00
2022-08-17T23:02:48.099Z,100.00
2022-08-17T23:05:15.807Z,100.00
2022-08-17T23:07:46.063Z,100.00
2022-08-17T23:10:16.212Z,100.00
2022-08-17T23:12:46.171Z,100.00
2022-08-17T23:15:16.391Z,100.00
2022-08-17T23:17:45.812Z,100.00
2022-08-17T23:20:15.904Z,100.00
2022-08-17T23:22:51.710Z,100.00
2022-08-17T23:25:17.680Z,100.00
2022-08-17T23:27:48.787Z,100.00
2022-08-17T23:30:17.963Z,100.00
2022-08-17T23:32:53.964Z,100.00
2022-08-17T23:35:18.781Z,100.00
2022-08-17T23:37:47.521Z,100.00
2022-08-17T23:40:16.651Z,100.00
2022-08-17T23:42:46.452Z,100.00
2022-08-17T23:45:16.535Z,100.00
2022-08-17T23:47:46.746Z,100.00
2022-08-17T23:50:15.948Z,100.00
2022-08-17T23:52:46.789Z,100.00
2022-08-17T23:55:15.627Z,100.00
2022-08-17T23:57:44.429Z,100.00
